Carbondale, California
Current Conditions -  °F | °C
As of 3:45 PM on Friday 21 Nov 2014 (Local Time) from KMHR Reporting Station
Broken Clouds Broken Clouds  
Wind Chill: 55°   Ceiling: 7000
Heat Index: 55°   Visibility: 8mi
Dew Point: 55°   Wind: 5mph
Humidity: 100%   Direction: 230°SW
Pressure: 30.11"   Gusts: NA
Location:  38.3354°N, 120.942°W
Report Text: KMHR 212345Z 23004KT 8SM BKN070 BKN085 13/13 A3011
Loading
Personal Weather Stations






























Interactive Weather Map New forecast layout! Learn more

10-Day Weather Forecast

Advertisements
Track Severe Weather on mobile